createdAt,value
2022-11-05T00:00:05.799Z,11.250000
2022-11-05T00:01:00.192Z,11.250000
2022-11-05T00:02:00.405Z,11.250000
2022-11-05T00:03:00.199Z,11.250000
2022-11-05T00:04:00.401Z,11.250000
2022-11-05T00:05:03.333Z,11.250000
2022-11-05T00:06:00.328Z,11.250000
2022-11-05T00:07:00.232Z,11.250000
2022-11-05T00:08:01.477Z,0.000000
2022-11-05T00:09:00.245Z,0.000000
2022-11-05T00:10:03.554Z,0.000000
2022-11-05T00:11:00.268Z,0.000000
2022-11-05T00:12:01.488Z,0.000000
2022-11-05T00:13:00.260Z,0.000000
2022-11-05T00:14:00.361Z,0.000000
2022-11-05T00:15:03.257Z,0.000000
2022-11-05T00:16:01.468Z,0.000000
2022-11-05T00:17:00.279Z,0.000000
2022-11-05T00:18:00.397Z,0.000000
2022-11-05T00:19:00.316Z,0.000000
2022-11-05T00:20:03.738Z,0.000000
2022-11-05T00:21:00.332Z,0.000000
2022-11-05T00:22:00.382Z,0.000000
2022-11-05T00:23:00.320Z,0.000000
2022-11-05T00:24:01.686Z,0.000000
2022-11-05T00:25:06.818Z,0.000000
2022-11-05T00:26:00.429Z,0.000000
2022-11-05T00:27:00.397Z,0.000000
2022-11-05T00:28:00.421Z,0.000000
2022-11-05T00:29:00.379Z,0.000000
2022-11-05T00:30:03.632Z,0.000000
2022-11-05T00:31:00.375Z,0.000000
2022-11-05T00:32:00.478Z,0.000000
2022-11-05T00:33:00.401Z,0.000000
2022-11-05T00:34:00.465Z,0.000000
2022-11-05T00:35:03.272Z,0.000000
2022-11-05T00:36:00.516Z,0.000000
2022-11-05T00:37:00.434Z,0.000000
2022-11-05T00:38:01.469Z,0.000000
2022-11-05T00:39:00.456Z,0.000000
2022-11-05T00:40:03.989Z,0.000000
2022-11-05T00:41:00.472Z,0.000000
2022-11-05T00:42:01.520Z,0.000000
2022-11-05T00:43:00.463Z,0.000000
2022-11-05T00:44:00.545Z,0.000000
2022-11-05T00:45:03.685Z,0.000000
2022-11-05T00:46:01.486Z,0.000000
2022-11-05T00:47:00.529Z,0.000000
2022-11-05T00:48:00.621Z,0.000000
2022-11-05T00:49:00.537Z,0.000000
2022-11-05T00:50:05.731Z,0.000000
2022-11-05T00:51:00.573Z,0.000000
2022-11-05T00:52:00.620Z,0.000000
2022-11-05T00:53:00.593Z,0.000000
2022-11-05T00:54:01.506Z,0.000000
2022-11-05T00:55:03.490Z,0.000000
2022-11-05T00:56:00.641Z,0.000000
2022-11-05T00:57:04.495Z,0.000000
2022-11-05T00:58:00.698Z,0.000000
2022-11-05T00:59:00.584Z,0.000000
2022-11-05T01:00:05.086Z,0.000000
2022-11-05T01:01:00.593Z,0.000000
2022-11-05T01:02:00.889Z,0.000000
2022-11-05T01:03:00.605Z,0.000000
2022-11-05T01:04:00.660Z,0.000000
2022-11-05T01:05:03.694Z,0.000000
2022-11-05T01:06:00.745Z,0.000000
2022-11-05T01:07:00.639Z,0.000000
2022-11-05T01:08:01.501Z,0.000000
2022-11-05T01:09:00.643Z,0.000000
2022-11-05T01:10:04.221Z,0.000000
2022-11-05T01:11:00.667Z,0.000000
2022-11-05T01:12:01.510Z,0.000000
2022-11-05T01:13:00.655Z,0.000000
2022-11-05T01:14:00.762Z,0.000000
2022-11-05T01:15:03.478Z,0.000000
2022-11-05T01:16:01.473Z,0.000000
2022-11-05T01:17:00.691Z,0.000000
2022-11-05T01:18:00.792Z,0.000000
2022-11-05T01:19:00.680Z,0.000000
2022-11-05T01:20:05.616Z,0.000000
2022-11-05T01:21:00.713Z,0.000000
2022-11-05T01:22:00.778Z,0.000000
2022-11-05T01:23:00.724Z,0.000000
2022-11-05T01:24:01.495Z,0.000000
2022-11-05T01:25:03.468Z,0.000000
2022-11-05T01:26:00.805Z,0.000000
2022-11-05T01:27:00.746Z,0.000000
2022-11-05T01:28:00.823Z,0.000000
2022-11-05T01:29:00.899Z,0.000000
2022-11-05T01:30:05.861Z,22.500000
2022-11-05T01:31:00.760Z,22.500000
2022-11-05T01:32:00.837Z,0.000000
2022-11-05T01:33:00.779Z,0.000000
2022-11-05T01:34:00.830Z,0.000000
2022-11-05T01:35:04.999Z,0.000000
2022-11-05T01:36:00.914Z,0.000000
2022-11-05T01:37:00.788Z,0.000000
2022-11-05T01:38:01.490Z,0.000000
2022-11-05T01:39:00.812Z,0.000000
2022-11-05T01:40:05.747Z,0.000000
2022-11-05T01:41:00.807Z,0.000000
2022-11-05T01:42:01.548Z,0.000000
2022-11-05T01:43:00.814Z,0.000000
2022-11-05T01:44:00.897Z,0.000000
2022-11-05T01:45:05.814Z,0.000000
2022-11-05T01:46:01.522Z,0.000000
2022-11-05T01:47:00.851Z,0.000000
2022-11-05T01:48:00.973Z,0.000000
2022-11-05T01:49:03.335Z,0.000000
2022-11-05T01:50:05.559Z,0.000000
2022-11-05T01:51:00.893Z,0.000000
2022-11-05T01:52:00.960Z,0.000000
2022-11-05T01:53:00.903Z,0.000000
2022-11-05T01:54:01.509Z,0.000000
2022-11-05T01:55:05.224Z,0.000000
2022-11-05T01:56:00.983Z,0.000000
2022-11-05T01:57:00.927Z,0.000000
2022-11-05T01:58:01.012Z,0.000000
2022-11-05T01:59:00.936Z,0.000000
2022-11-05T02:00:05.815Z,0.000000
2022-11-05T02:01:00.957Z,0.000000
2022-11-05T02:02:01.292Z,0.000000
2022-11-05T02:03:01.047Z,0.000000
2022-11-05T02:04:01.050Z,0.000000
2022-11-05T02:05:03.826Z,0.000000
2022-11-05T02:06:01.109Z,0.000000
2022-11-05T02:07:01.007Z,0.000000
2022-11-05T02:08:01.497Z,0.000000
2022-11-05T02:09:01.023Z,0.000000
2022-11-05T02:10:05.803Z,0.000000
2022-11-05T02:11:01.034Z,0.000000
2022-11-05T02:12:01.546Z,0.000000
2022-11-05T02:13:01.041Z,0.000000
2022-11-05T02:14:01.101Z,0.000000
2022-11-05T02:15:03.859Z,33.750000
2022-11-05T02:16:01.485Z,33.750000
2022-11-05T02:17:01.051Z,33.750000
2022-11-05T02:18:01.223Z,22.500000
2022-11-05T02:19:01.198Z,22.500000
2022-11-05T02:20:05.715Z,0.000000
2022-11-05T02:21:01.093Z,0.000000
2022-11-05T02:22:01.161Z,0.000000
2022-11-05T02:23:01.093Z,0.000000
2022-11-05T02:24:01.806Z,0.000000
2022-11-05T02:25:04.044Z,0.000000
2022-11-05T02:26:01.174Z,0.000000
2022-11-05T02:27:01.141Z,0.000000
2022-11-05T02:28:01.215Z,0.000000
2022-11-05T02:29:01.137Z,0.000000
2022-11-05T02:30:05.796Z,22.500000
2022-11-05T02:31:01.163Z,22.500000
2022-11-05T02:32:01.219Z,22.500000
2022-11-05T02:33:01.186Z,0.000000
2022-11-05T02:34:01.374Z,0.000000
2022-11-05T02:35:04.254Z,0.000000
2022-11-05T02:36:01.302Z,0.000000
2022-11-05T02:37:00.188Z,0.000000
2022-11-05T02:38:01.493Z,0.000000
2022-11-05T02:39:00.235Z,0.000000
2022-11-05T02:40:41.209Z,33.750000
2022-11-05T02:41:00.218Z,33.750000
2022-11-05T02:42:04.991Z,33.750000
2022-11-05T02:43:00.233Z,67.500000
2022-11-05T02:44:00.308Z,67.500000
2022-11-05T02:45:00.664Z,0.000000
2022-11-05T02:46:01.508Z,0.000000
2022-11-05T02:47:00.269Z,0.000000
2022-11-05T02:48:00.411Z,0.000000
2022-11-05T02:49:00.278Z,0.000000
2022-11-05T02:50:01.529Z,78.750000
2022-11-05T02:51:00.295Z,78.750000
2022-11-05T02:52:00.362Z,78.750000
2022-11-05T02:53:00.284Z,11.250000
2022-11-05T02:54:01.552Z,11.250000
2022-11-05T02:55:00.706Z,11.250000
2022-11-05T02:56:00.373Z,56.250000
2022-11-05T02:57:00.339Z,56.250000
2022-11-05T02:58:00.386Z,22.500000
2022-11-05T02:59:00.323Z,22.500000
2022-11-05T03:00:01.062Z,22.500000
2022-11-05T03:01:00.360Z,0.000000
2022-11-05T03:02:00.555Z,0.000000
2022-11-05T03:03:00.489Z,0.000000
2022-11-05T03:04:00.493Z,0.000000
2022-11-05T03:05:00.798Z,0.000000
2022-11-05T03:06:00.529Z,0.000000
2022-11-05T03:07:00.396Z,0.000000
2022-11-05T03:08:01.493Z,0.000000
2022-11-05T03:09:00.412Z,0.000000
2022-11-05T03:10:01.013Z,0.000000
2022-11-05T03:11:00.413Z,0.000000
2022-11-05T03:12:01.562Z,0.000000
2022-11-05T03:13:00.441Z,0.000000
2022-11-05T03:14:00.501Z,0.000000
2022-11-05T03:15:00.839Z,0.000000
2022-11-05T03:16:01.511Z,0.000000
2022-11-05T03:17:00.469Z,0.000000
2022-11-05T03:18:00.584Z,0.000000
2022-11-05T03:19:00.474Z,0.000000
2022-11-05T03:20:01.510Z,0.000000
2022-11-05T03:21:00.513Z,0.000000
2022-11-05T03:22:00.592Z,0.000000
2022-11-05T03:23:00.521Z,0.000000
2022-11-05T03:24:01.544Z,0.000000
2022-11-05T03:25:00.935Z,0.000000
2022-11-05T03:26:00.604Z,0.000000
2022-11-05T03:27:00.551Z,0.000000
2022-11-05T03:28:00.619Z,0.000000
2022-11-05T03:29:00.536Z,0.000000
2022-11-05T03:30:01.164Z,0.000000
2022-11-05T03:31:00.567Z,0.000000
2022-11-05T03:32:00.670Z,0.000000
2022-11-05T03:33:00.603Z,0.000000
2022-11-05T03:34:15.938Z,0.000000
2022-11-05T03:35:41.935Z,0.000000
2022-11-05T03:36:00.752Z,0.000000
2022-11-05T03:37:00.624Z,0.000000
2022-11-05T03:38:00.725Z,0.000000
2022-11-05T03:39:00.648Z,0.000000
2022-11-05T03:40:05.104Z,0.000000
2022-11-05T03:41:00.678Z,0.000000
2022-11-05T03:42:00.754Z,0.000000
2022-11-05T03:43:00.641Z,0.000000
2022-11-05T03:44:00.752Z,0.000000
2022-11-05T03:45:03.868Z,0.000000
2022-11-05T03:46:00.731Z,0.000000
2022-11-05T03:47:00.722Z,0.000000
2022-11-05T03:48:00.753Z,0.000000
2022-11-05T03:49:00.731Z,0.000000
2022-11-05T03:50:05.140Z,0.000000
2022-11-05T03:51:00.718Z,0.000000
2022-11-05T03:52:00.769Z,0.000000
2022-11-05T03:53:00.725Z,0.000000
2022-11-05T03:54:00.822Z,0.000000
2022-11-05T03:55:03.980Z,0.000000
2022-11-05T03:56:00.847Z,0.000000
2022-11-05T03:57:00.748Z,0.000000
2022-11-05T03:58:00.812Z,0.000000
2022-11-05T03:59:00.793Z,0.000000
2022-11-05T04:00:05.902Z,0.000000
2022-11-05T04:01:00.779Z,0.000000
2022-11-05T04:02:01.035Z,0.000000
2022-11-05T04:03:00.894Z,0.000000
2022-11-05T04:04:00.884Z,0.000000
2022-11-05T04:05:03.863Z,0.000000
2022-11-05T04:06:00.914Z,0.000000
2022-11-05T04:07:00.822Z,0.000000
2022-11-05T04:08:00.903Z,0.000000
2022-11-05T04:09:00.874Z,0.000000
2022-11-05T04:10:04.680Z,0.000000
2022-11-05T04:11:00.886Z,0.000000
2022-11-05T04:12:00.937Z,0.000000
2022-11-05T04:13:00.858Z,0.000000
2022-11-05T04:14:00.941Z,0.000000
2022-11-05T04:15:05.961Z,0.000000
2022-11-05T04:16:00.957Z,0.000000
2022-11-05T04:17:00.894Z,0.000000
2022-11-05T04:18:00.973Z,0.000000
2022-11-05T04:19:00.928Z,0.000000
2022-11-05T04:20:04.252Z,0.000000
2022-11-05T04:21:00.952Z,0.000000
2022-11-05T04:22:00.986Z,0.000000
2022-11-05T04:23:00.941Z,0.000000
2022-11-05T04:24:01.009Z,0.000000
2022-11-05T04:25:03.913Z,0.000000
2022-11-05T04:26:01.056Z,0.000000
2022-11-05T04:27:00.985Z,11.250000
2022-11-05T04:28:01.011Z,11.250000
2022-11-05T04:29:05.236Z,45.000000
2022-11-05T04:30:06.651Z,45.000000
2022-11-05T04:31:00.984Z,45.000000
2022-11-05T04:32:01.063Z,22.500000
2022-11-05T04:33:01.044Z,22.500000
2022-11-05T04:34:01.057Z,0.000000
2022-11-05T04:35:04.031Z,0.000000
2022-11-05T04:36:01.083Z,0.000000
2022-11-05T04:37:01.022Z,78.750000
2022-11-05T04:38:01.081Z,78.750000
2022-11-05T04:39:01.225Z,78.750000
2022-11-05T04:40:11.495Z,67.500000
2022-11-05T04:41:01.049Z,67.500000
2022-11-05T04:42:01.142Z,11.250000
2022-11-05T04:43:01.071Z,11.250000
2022-11-05T04:44:01.115Z,11.250000
2022-11-05T04:45:04.219Z,11.250000
2022-11-05T04:46:01.145Z,0.000000
2022-11-05T04:47:01.069Z,0.000000
2022-11-05T04:48:01.159Z,0.000000
2022-11-05T04:49:01.084Z,0.000000
2022-11-05T04:50:04.808Z,0.000000
2022-11-05T04:51:01.131Z,0.000000
2022-11-05T04:52:01.184Z,0.000000
2022-11-05T04:53:01.120Z,0.000000
2022-11-05T04:54:01.208Z,0.000000
2022-11-05T04:55:04.279Z,0.000000
2022-11-05T04:56:01.243Z,0.000000
2022-11-05T04:57:01.146Z,0.000000
2022-11-05T04:58:01.250Z,0.000000
2022-11-05T04:59:01.166Z,0.000000
2022-11-05T05:00:06.328Z,0.000000
2022-11-05T05:01:01.212Z,0.000000
2022-11-05T05:02:01.319Z,0.000000
2022-11-05T05:03:01.178Z,0.000000
2022-11-05T05:04:01.253Z,0.000000
2022-11-05T05:05:04.468Z,0.000000
2022-11-05T05:06:04.026Z,0.000000
2022-11-05T05:07:00.217Z,0.000000
2022-11-05T05:08:00.313Z,0.000000
2022-11-05T05:09:00.241Z,0.000000
2022-11-05T05:10:04.596Z,0.000000
2022-11-05T05:11:00.243Z,0.000000
2022-11-05T05:12:00.315Z,0.000000
2022-11-05T05:13:00.256Z,0.000000
2022-11-05T05:14:00.375Z,0.000000
2022-11-05T05:15:03.230Z,0.000000
2022-11-05T05:16:00.335Z,0.000000
2022-11-05T05:17:00.281Z,0.000000
2022-11-05T05:18:00.353Z,0.000000
2022-11-05T05:19:00.303Z,0.000000
2022-11-05T05:20:04.732Z,0.000000
2022-11-05T05:21:00.322Z,0.000000
2022-11-05T05:22:00.387Z,0.000000
2022-11-05T05:23:00.329Z,0.000000
2022-11-05T05:24:00.404Z,0.000000
2022-11-05T05:25:07.080Z,0.000000
2022-11-05T05:26:00.438Z,0.000000
2022-11-05T05:27:00.382Z,0.000000
2022-11-05T05:28:00.456Z,0.000000
2022-11-05T05:29:00.364Z,0.000000
2022-11-05T05:30:03.567Z,0.000000
2022-11-05T05:31:00.427Z,0.000000
2022-11-05T05:32:00.463Z,0.000000
2022-11-05T05:33:00.424Z,0.000000
2022-11-05T05:34:00.499Z,0.000000
2022-11-05T05:35:03.678Z,0.000000
2022-11-05T05:36:00.523Z,0.000000
2022-11-05T05:37:00.455Z,0.000000
2022-11-05T05:38:00.509Z,0.000000
2022-11-05T05:39:00.468Z,0.000000
2022-11-05T05:40:04.823Z,0.000000
2022-11-05T05:41:00.464Z,0.000000
2022-11-05T05:42:00.539Z,0.000000
2022-11-05T05:43:00.604Z,0.000000
2022-11-05T05:44:00.538Z,0.000000
2022-11-05T05:45:03.542Z,0.000000
2022-11-05T05:46:00.602Z,0.000000
2022-11-05T05:47:00.494Z,0.000000
2022-11-05T05:48:00.587Z,0.000000
2022-11-05T05:49:00.524Z,0.000000
2022-11-05T05:50:04.983Z,0.000000
2022-11-05T05:51:00.556Z,0.000000
2022-11-05T05:52:00.616Z,0.000000
2022-11-05T05:53:00.559Z,0.000000
2022-11-05T05:54:00.637Z,0.000000
2022-11-05T05:55:03.422Z,0.000000
2022-11-05T05:56:00.646Z,0.000000
2022-11-05T05:57:00.578Z,0.000000
2022-11-05T05:58:00.637Z,0.000000
2022-11-05T05:59:00.600Z,0.000000
2022-11-05T06:00:04.180Z,0.000000
2022-11-05T06:01:00.637Z,0.000000
2022-11-05T06:02:00.905Z,0.000000
2022-11-05T06:03:00.724Z,0.000000
2022-11-05T06:04:00.775Z,0.000000
2022-11-05T06:05:03.747Z,0.000000
2022-11-05T06:06:00.783Z,0.000000
2022-11-05T06:07:00.697Z,0.000000
2022-11-05T06:08:00.760Z,0.000000
2022-11-05T06:09:00.749Z,0.000000
2022-11-05T06:10:05.560Z,0.000000
2022-11-05T06:11:00.769Z,0.000000
2022-11-05T06:12:00.817Z,0.000000
2022-11-05T06:13:00.719Z,0.000000
2022-11-05T06:14:00.783Z,0.000000
2022-11-05T06:15:03.861Z,0.000000
2022-11-05T06:16:00.833Z,0.000000
2022-11-05T06:17:00.745Z,0.000000
2022-11-05T06:18:00.894Z,0.000000
2022-11-05T06:19:00.752Z,0.000000
2022-11-05T06:20:06.785Z,0.000000
2022-11-05T06:21:00.785Z,0.000000
2022-11-05T06:22:00.846Z,0.000000
2022-11-05T06:23:00.773Z,0.000000
2022-11-05T06:24:00.892Z,0.000000
2022-11-05T06:25:05.060Z,0.000000
2022-11-05T06:26:00.873Z,0.000000
2022-11-05T06:27:00.825Z,0.000000
2022-11-05T06:28:00.885Z,0.000000
2022-11-05T06:29:00.815Z,0.000000
2022-11-05T06:30:05.794Z,0.000000
2022-11-05T06:31:00.850Z,0.000000
2022-11-05T06:32:00.894Z,0.000000
2022-11-05T06:33:00.848Z,0.000000
2022-11-05T06:34:00.939Z,0.000000
2022-11-05T06:35:03.719Z,0.000000
2022-11-05T06:36:00.974Z,0.000000
2022-11-05T06:37:00.877Z,0.000000
2022-11-05T06:38:00.950Z,0.000000
2022-11-05T06:39:00.883Z,0.000000
2022-11-05T06:40:05.737Z,0.000000
2022-11-05T06:41:03.344Z,0.000000
2022-11-05T06:42:18.037Z,0.000000
2022-11-05T06:43:00.891Z,0.000000
2022-11-05T06:44:00.970Z,0.000000
2022-11-05T06:45:03.893Z,0.000000
2022-11-05T06:46:01.002Z,0.000000
2022-11-05T06:47:00.927Z,0.000000
2022-11-05T06:48:01.159Z,0.000000
2022-11-05T06:49:00.928Z,0.000000
2022-11-05T06:50:04.561Z,0.000000
2022-11-05T06:51:00.956Z,0.000000
2022-11-05T06:52:01.013Z,0.000000
2022-11-05T06:53:00.963Z,0.000000
2022-11-05T06:54:01.071Z,0.000000
2022-11-05T06:55:03.926Z,0.000000
2022-11-05T06:56:01.040Z,0.000000
2022-11-05T06:57:01.007Z,0.000000
2022-11-05T06:58:01.046Z,0.000000
2022-11-05T06:59:00.983Z,0.000000
2022-11-05T07:00:07.805Z,0.000000
2022-11-05T07:01:01.048Z,0.000000
2022-11-05T07:02:01.219Z,0.000000
2022-11-05T07:03:01.022Z,0.000000
2022-11-05T07:04:01.087Z,0.000000
2022-11-05T07:05:04.256Z,0.000000
2022-11-05T07:06:01.195Z,0.000000
2022-11-05T07:07:01.020Z,0.000000
2022-11-05T07:08:01.094Z,0.000000
2022-11-05T07:09:01.050Z,0.000000
2022-11-05T07:10:04.453Z,0.000000
2022-11-05T07:11:01.044Z,0.000000
2022-11-05T07:12:01.201Z,0.000000
2022-11-05T07:13:05.153Z,0.000000
2022-11-05T07:14:01.150Z,0.000000
2022-11-05T07:15:20.631Z,0.000000
2022-11-05T07:16:01.167Z,0.000000
2022-11-05T07:17:01.087Z,0.000000
2022-11-05T07:18:01.205Z,0.000000
2022-11-05T07:19:01.097Z,0.000000
2022-11-05T07:20:05.883Z,0.000000
2022-11-05T07:21:01.145Z,0.000000
2022-11-05T07:22:01.255Z,0.000000
2022-11-05T07:23:01.127Z,0.000000
2022-11-05T07:24:01.393Z,0.000000
2022-11-05T07:25:05.673Z,0.000000
2022-11-05T07:26:01.216Z,0.000000
2022-11-05T07:27:01.177Z,0.000000
2022-11-05T07:28:01.228Z,0.000000
2022-11-05T07:29:01.157Z,0.000000
2022-11-05T07:30:06.293Z,0.000000
2022-11-05T07:31:01.187Z,0.000000
2022-11-05T07:32:00.268Z,0.000000
2022-11-05T07:33:00.196Z,0.000000
2022-11-05T07:34:00.253Z,0.000000
2022-11-05T07:35:03.285Z,0.000000
2022-11-05T07:36:00.323Z,101.250000
2022-11-05T07:37:00.222Z,101.250000
2022-11-05T07:38:00.335Z,101.250000
2022-11-05T07:39:00.639Z,11.250000
2022-11-05T07:40:03.683Z,11.250000
2022-11-05T07:41:00.253Z,11.250000
2022-11-05T07:42:00.368Z,0.000000
2022-11-05T07:43:00.235Z,0.000000
2022-11-05T07:44:00.330Z,11.250000
2022-11-05T07:45:03.552Z,11.250000
2022-11-05T07:46:00.332Z,0.000000
2022-11-05T07:47:00.273Z,0.000000
2022-11-05T07:48:00.421Z,0.000000
2022-11-05T07:49:00.301Z,22.500000
2022-11-05T07:50:05.089Z,22.500000
2022-11-05T07:51:00.317Z,22.500000
2022-11-05T07:52:00.382Z,22.500000
2022-11-05T07:53:00.311Z,22.500000
2022-11-05T07:54:00.522Z,22.500000
2022-11-05T07:55:03.270Z,22.500000
2022-11-05T07:56:00.420Z,11.250000
2022-11-05T07:57:00.372Z,11.250000
2022-11-05T07:58:00.431Z,11.250000
2022-11-05T07:59:00.359Z,0.000000
2022-11-05T08:00:04.041Z,0.000000
2022-11-05T08:01:00.637Z,0.000000
2022-11-05T08:02:00.681Z,0.000000
2022-11-05T08:03:07.248Z,0.000000
2022-11-05T08:04:00.456Z,11.250000
2022-11-05T08:05:03.309Z,11.250000
2022-11-05T08:06:00.523Z,22.500000
2022-11-05T08:07:00.419Z,22.500000
2022-11-05T08:08:00.492Z,22.500000
2022-11-05T08:09:00.429Z,22.500000
2022-11-05T08:10:19.823Z,22.500000
2022-11-05T08:11:00.439Z,22.500000
2022-11-05T08:12:03.085Z,22.500000
2022-11-05T08:13:00.467Z,22.500000
2022-11-05T08:14:00.518Z,22.500000
2022-11-05T08:15:03.410Z,22.500000
2022-11-05T08:16:00.541Z,22.500000
2022-11-05T08:17:00.481Z,33.750000
2022-11-05T08:18:00.601Z,33.750000
2022-11-05T08:19:00.504Z,22.500000
2022-11-05T08:20:04.941Z,22.500000
2022-11-05T08:21:00.522Z,22.500000
2022-11-05T08:22:00.594Z,22.500000
2022-11-05T08:23:00.518Z,22.500000
2022-11-05T08:24:00.663Z,22.500000
2022-11-05T08:25:06.813Z,22.500000
2022-11-05T08:26:00.631Z,22.500000
2022-11-05T08:27:00.563Z,11.250000
2022-11-05T08:28:00.626Z,11.250000
2022-11-05T08:29:00.564Z,22.500000
2022-11-05T08:30:04.824Z,22.500000
2022-11-05T08:31:00.581Z,22.500000
2022-11-05T08:32:00.648Z,0.000000
2022-11-05T08:33:00.596Z,0.000000
2022-11-05T08:34:02.654Z,0.000000
2022-11-05T08:35:03.600Z,0.000000
2022-11-05T08:36:00.711Z,0.000000
2022-11-05T08:37:00.607Z,0.000000
2022-11-05T08:38:00.721Z,0.000000
2022-11-05T08:39:00.628Z,0.000000
2022-11-05T08:40:05.106Z,0.000000
2022-11-05T08:41:00.642Z,0.000000
2022-11-05T08:42:00.801Z,11.250000
2022-11-05T08:43:00.645Z,11.250000
2022-11-05T08:44:00.721Z,11.250000
2022-11-05T08:45:19.472Z,11.250000
2022-11-05T08:46:00.762Z,11.250000
2022-11-05T08:47:00.691Z,0.000000
2022-11-05T08:48:00.791Z,0.000000
2022-11-05T08:49:00.696Z,0.000000
2022-11-05T08:50:05.159Z,0.000000
2022-11-05T08:51:00.736Z,0.000000
2022-11-05T08:52:00.808Z,22.500000
2022-11-05T08:53:00.738Z,22.500000
2022-11-05T08:54:00.845Z,22.500000
2022-11-05T08:55:03.623Z,22.500000
2022-11-05T08:56:00.825Z,22.500000
2022-11-05T08:57:00.773Z,22.500000
2022-11-05T08:58:01.041Z,22.500000
2022-11-05T08:59:00.765Z,22.500000
2022-11-05T09:00:04.362Z,33.750000
2022-11-05T09:01:04.951Z,33.750000
2022-11-05T09:02:01.011Z,33.750000
2022-11-05T09:03:00.830Z,22.500000
2022-11-05T09:04:00.886Z,22.500000
2022-11-05T09:05:05.941Z,45.000000
2022-11-05T09:06:00.926Z,45.000000
2022-11-05T09:07:00.829Z,45.000000
2022-11-05T09:08:01.666Z,56.250000
2022-11-05T09:09:00.852Z,56.250000
2022-11-05T09:10:03.873Z,45.000000
2022-11-05T09:11:00.909Z,45.000000
2022-11-05T09:12:11.681Z,22.500000
2022-11-05T09:13:00.866Z,22.500000
2022-11-05T09:14:00.985Z,22.500000
2022-11-05T09:15:04.122Z,33.750000
2022-11-05T09:16:00.947Z,33.750000
2022-11-05T09:17:00.925Z,33.750000
2022-11-05T09:18:00.970Z,22.500000
2022-11-05T09:19:00.920Z,22.500000
2022-11-05T09:20:05.752Z,22.500000
2022-11-05T09:21:00.925Z,22.500000
2022-11-05T09:22:01.078Z,45.000000
2022-11-05T09:23:00.965Z,45.000000
2022-11-05T09:24:01.035Z,45.000000
2022-11-05T09:25:03.974Z,56.250000
2022-11-05T09:26:01.016Z,56.250000
2022-11-05T09:27:00.962Z,56.250000
2022-11-05T09:28:01.033Z,67.500000
2022-11-05T09:29:01.007Z,67.500000
2022-11-05T09:30:05.762Z,78.750000
2022-11-05T09:31:00.980Z,78.750000
2022-11-05T09:32:01.043Z,78.750000
2022-11-05T09:33:00.998Z,56.250000
2022-11-05T09:34:01.073Z,56.250000
2022-11-05T09:35:03.962Z,33.750000
2022-11-05T09:36:01.125Z,33.750000
2022-11-05T09:37:01.019Z,56.250000
2022-11-05T09:38:01.433Z,56.250000
2022-11-05T09:39:01.062Z,56.250000
2022-11-05T09:40:05.907Z,45.000000
2022-11-05T09:41:01.055Z,45.000000
2022-11-05T09:42:01.135Z,0.000000
2022-11-05T09:43:01.061Z,0.000000
2022-11-05T09:44:01.128Z,0.000000
2022-11-05T09:45:03.965Z,56.250000
2022-11-05T09:46:01.216Z,56.250000
2022-11-05T09:47:01.078Z,78.750000
2022-11-05T09:48:01.176Z,78.750000
2022-11-05T09:49:01.098Z,78.750000
2022-11-05T09:50:05.922Z,78.750000
2022-11-05T09:51:01.158Z,78.750000
2022-11-05T09:52:01.222Z,78.750000
2022-11-05T09:53:01.140Z,67.500000
2022-11-05T09:54:01.209Z,67.500000
2022-11-05T09:55:05.778Z,67.500000
2022-11-05T09:56:01.211Z,67.500000
2022-11-05T09:57:01.173Z,67.500000
2022-11-05T09:58:01.287Z,56.250000
2022-11-05T09:59:01.165Z,56.250000
2022-11-05T10:00:28.811Z,45.000000
2022-11-05T10:01:01.282Z,45.000000
2022-11-05T10:02:01.431Z,45.000000
2022-11-05T10:03:01.206Z,45.000000
2022-11-05T10:04:01.347Z,45.000000
2022-11-05T10:05:09.472Z,56.250000
2022-11-05T10:06:01.287Z,56.250000
2022-11-05T10:07:00.240Z,56.250000
2022-11-05T10:08:00.304Z,22.500000
2022-11-05T10:09:00.248Z,22.500000
2022-11-05T10:10:04.829Z,45.000000
2022-11-05T10:11:00.250Z,45.000000
2022-11-05T10:12:00.339Z,45.000000
2022-11-05T10:13:00.259Z,22.500000
2022-11-05T10:14:00.324Z,22.500000
2022-11-05T10:15:03.181Z,22.500000
2022-11-05T10:16:00.369Z,33.750000
2022-11-05T10:17:00.277Z,33.750000
2022-11-05T10:18:00.396Z,45.000000
2022-11-05T10:19:00.279Z,45.000000
2022-11-05T10:20:03.914Z,45.000000
2022-11-05T10:21:00.325Z,45.000000
2022-11-05T10:22:06.515Z,45.000000
2022-11-05T10:23:00.342Z,45.000000
2022-11-05T10:24:00.412Z,33.750000
2022-11-05T10:25:03.301Z,33.750000
2022-11-05T10:26:00.410Z,56.250000
2022-11-05T10:27:00.371Z,56.250000
2022-11-05T10:28:00.448Z,45.000000
2022-11-05T10:29:00.363Z,45.000000
2022-11-05T10:30:03.948Z,67.500000
2022-11-05T10:31:00.379Z,67.500000
2022-11-05T10:32:00.441Z,67.500000
2022-11-05T10:33:00.405Z,56.250000
2022-11-05T10:34:00.498Z,56.250000
2022-11-05T10:35:04.666Z,56.250000
2022-11-05T10:36:00.478Z,56.250000
2022-11-05T10:37:00.426Z,56.250000
2022-11-05T10:38:00.486Z,56.250000
2022-11-05T10:39:00.429Z,56.250000
2022-11-05T10:40:12.499Z,45.000000
2022-11-05T10:41:00.421Z,45.000000
2022-11-05T10:42:00.525Z,45.000000
2022-11-05T10:43:00.447Z,45.000000
2022-11-05T10:44:00.509Z,45.000000
2022-11-05T10:45:03.478Z,45.000000
2022-11-05T10:46:00.553Z,33.750000
2022-11-05T10:47:00.459Z,33.750000
2022-11-05T10:48:00.558Z,33.750000
2022-11-05T10:49:00.491Z,56.250000
2022-11-05T10:50:04.090Z,56.250000
2022-11-05T10:51:00.498Z,56.250000
2022-11-05T10:52:00.577Z,56.250000
2022-11-05T10:53:00.500Z,78.750000
2022-11-05T10:54:02.269Z,78.750000
2022-11-05T10:55:24.064Z,78.750000
2022-11-05T10:56:00.589Z,78.750000
2022-11-05T10:57:00.539Z,78.750000
2022-11-05T10:58:00.638Z,90.000000
2022-11-05T10:59:00.540Z,90.000000
2022-11-05T11:00:04.009Z,90.000000
2022-11-05T11:01:00.636Z,67.500000
2022-11-05T11:02:00.749Z,67.500000
2022-11-05T11:03:00.571Z,45.000000
2022-11-05T11:04:00.672Z,45.000000
2022-11-05T11:05:03.792Z,45.000000
2022-11-05T11:06:00.721Z,56.250000
2022-11-05T11:07:00.600Z,56.250000
2022-11-05T11:08:00.689Z,56.250000
2022-11-05T11:09:00.615Z,90.000000
2022-11-05T11:10:05.728Z,90.000000
2022-11-05T11:11:00.615Z,56.250000
2022-11-05T11:12:01.391Z,56.250000
2022-11-05T11:13:00.645Z,78.750000
2022-11-05T11:14:00.912Z,78.750000
2022-11-05T11:15:03.630Z,78.750000
2022-11-05T11:16:00.846Z,90.000000
2022-11-05T11:17:00.654Z,90.000000
2022-11-05T11:18:01.852Z,90.000000
2022-11-05T11:19:00.678Z,78.750000
2022-11-05T11:20:04.180Z,78.750000
2022-11-05T11:21:00.694Z,78.750000
2022-11-05T11:22:02.113Z,90.000000
2022-11-05T11:23:00.696Z,90.000000
2022-11-05T11:24:00.819Z,67.500000
2022-11-05T11:25:04.917Z,67.500000
2022-11-05T11:26:01.134Z,67.500000
2022-11-05T11:27:00.721Z,67.500000
2022-11-05T11:28:01.611Z,67.500000
2022-11-05T11:29:00.712Z,45.000000
2022-11-05T11:30:04.309Z,45.000000
2022-11-05T11:31:00.726Z,45.000000
2022-11-05T11:32:00.800Z,45.000000
2022-11-05T11:33:00.760Z,45.000000
2022-11-05T11:34:00.848Z,22.500000
2022-11-05T11:35:04.960Z,22.500000
2022-11-05T11:36:00.827Z,22.500000